Pagrindinis puslapis
METAR-TAF:

METAR-TAF

Oro uostai :

Soldotna, Aliaska, Jungtinės Amerikos Valstijos

platuma: 60-29N, ilguma: 151-02W, Aukštis: 33 m

Dabartinis oras

Ataskaita buvo paskelbta 44 minutes, ne 03:56 UTC
Vėjas 4 kt iš Šiaurės Rytų
Temperatūra -11°C
Drėgmė 78%
Slėgis 1016 hPa
Matomumas: 16.1 km
Giedras dangus

METAR: PASX 170356Z AUTO 05004KT 10SM CLR M11/M14 A3000 RMK AO2 SLP170 T11111144 FZRANO

Laikas: 19:40 (04:40 UTC)


TAF: trūkstamas

Orai ataskaitas ir orų prognozės (METAR, TAF).

turimą stotys yra geltonos ir raudonos taškus žemėlapyje.

Perkelti pele per norėdami pamatyti stoties vardą.

Tada spustelėkite, norėdami matyti oro stebėjimo ir prognozės.

Norėdami pakeisti žemėlapį: spustelėkite ant žalios mygtukų su juodo kryžiaus žemyn,; žalią mygtuką su brūkšneliu, jei norite nutolinti; arba žalių rodyklių gretimoms žemėlapius.


METAR-TAF: